Terminal Aerodrome Forecast
Issued by NWS

Home | Current Version | Previous Version | Text Only | Print | Product List | Glossary On
Versions: 1 2 3 4 5 6 7 8 9 10 11 12 13 14 15 16 17 18 19 20 21 22 23 24 25 26 27 28 29 30 31 32 33 34 35 36 37
000
FTUS46 KPQR 301125
TAFONP
TAF
KONP 301125Z 3012/3112 13003KT P6SM OVC015
     FM301800 19003KT P6SM OVC020
     FM310200 20014KT P6SM -RA OVC030
     FM310400 20014KT 6SM -RA BKN012 OVC020=

USA.gov is the U.S. government's official web portal to all federal, state and local government web resources and services.